createdAt,value
2023-05-05T00:01:21.920Z,12.80
2023-05-05T00:02:53.946Z,12.85
2023-05-05T00:04:25.826Z,12.92
2023-05-05T00:05:58.159Z,12.91
2023-05-05T00:07:30.021Z,12.92
2023-05-05T00:09:01.797Z,12.94
2023-05-05T00:10:33.656Z,12.83
2023-05-05T00:12:06.205Z,12.67
2023-05-05T00:13:38.260Z,12.67
2023-05-05T00:15:11.650Z,12.82
2023-05-05T00:16:43.562Z,12.81
2023-05-05T00:18:16.617Z,12.71
2023-05-05T00:19:48.481Z,12.65
2023-05-05T00:21:20.433Z,12.76
2023-05-05T00:22:52.295Z,12.84
2023-05-05T00:24:24.211Z,12.84
2023-05-05T00:25:56.065Z,12.93
2023-05-05T00:27:28.238Z,13.03
2023-05-05T00:29:00.245Z,12.95
2023-05-05T00:30:33.638Z,12.94
2023-05-05T00:32:05.546Z,12.96
2023-05-05T00:33:37.476Z,13.01
2023-05-05T00:35:09.648Z,13.00
2023-05-05T00:36:41.624Z,12.96
2023-05-05T00:38:13.624Z,13.02
2023-05-05T00:39:45.448Z,13.02
2023-05-05T00:41:17.539Z,13.00
2023-05-05T00:42:52.488Z,12.74
2023-05-05T00:44:35.179Z,12.80
2023-05-05T00:46:12.093Z,12.94
2023-05-05T00:47:45.390Z,12.85
2023-05-05T00:49:17.313Z,12.81
2023-05-05T00:50:49.503Z,12.56
2023-05-05T00:52:21.500Z,12.75
2023-05-05T00:53:53.374Z,12.73
2023-05-05T00:55:25.375Z,12.60
2023-05-05T00:56:57.350Z,12.62
2023-05-05T00:58:29.321Z,12.59
2023-05-05T01:00:01.441Z,12.60
2023-05-05T01:01:34.727Z,12.56
2023-05-05T01:03:06.733Z,12.57
2023-05-05T01:04:38.625Z,12.56
2023-05-05T01:06:16.402Z,12.52
2023-05-05T01:08:05.098Z,12.64
2023-05-05T01:09:39.248Z,12.64
2023-05-05T01:11:14.507Z,12.60
2023-05-05T01:12:49.292Z,12.53
2023-05-05T01:14:23.310Z,12.43
2023-05-05T01:15:56.864Z,12.44
2023-05-05T01:17:35.888Z,12.50
2023-05-05T01:19:16.229Z,12.53
2023-05-05T01:20:50.425Z,12.45
2023-05-05T01:22:24.438Z,12.52
2023-05-05T01:24:12.280Z,12.13
2023-05-05T01:26:06.140Z,12.18
2023-05-05T01:28:01.049Z,12.25
2023-05-05T01:29:41.423Z,12.14
2023-05-05T01:31:21.859Z,12.25
2023-05-05T01:32:58.348Z,12.18
2023-05-05T01:34:34.454Z,12.21
2023-05-05T01:36:09.181Z,12.28
2023-05-05T01:37:44.321Z,12.38
2023-05-05T01:39:16.276Z,12.35
2023-05-05T01:40:49.060Z,12.16
2023-05-05T01:42:20.852Z,12.19
2023-05-05T01:43:52.734Z,11.99
2023-05-05T01:45:26.057Z,12.22
2023-05-05T01:46:58.097Z,12.23
2023-05-05T01:48:33.410Z,12.31
2023-05-05T01:50:06.463Z,12.25
2023-05-05T01:51:38.855Z,12.26
2023-05-05T01:53:10.731Z,12.32
2023-05-05T01:54:43.048Z,12.28
2023-05-05T01:56:15.502Z,12.23
2023-05-05T01:57:47.344Z,12.23
2023-05-05T01:59:19.302Z,12.31
2023-05-05T02:00:51.196Z,12.26
2023-05-05T02:02:23.142Z,12.21
2023-05-05T02:03:57.312Z,12.19
2023-05-05T02:05:29.188Z,12.18
2023-05-05T02:07:01.429Z,12.08
2023-05-05T02:08:33.299Z,12.14
2023-05-05T02:10:08.298Z,12.20
2023-05-05T02:11:40.468Z,12.24
2023-05-05T02:13:15.645Z,12.22
2023-05-05T02:14:47.568Z,12.13
2023-05-05T02:16:19.394Z,12.05
2023-05-05T02:17:52.834Z,12.04
2023-05-05T02:19:28.753Z,11.96
2023-05-05T02:21:00.588Z,12.05
2023-05-05T02:22:32.578Z,12.00
2023-05-05T02:24:05.171Z,12.07
2023-05-05T02:25:44.423Z,12.12
2023-05-05T02:27:17.880Z,12.15
2023-05-05T02:28:51.831Z,12.17
2023-05-05T02:30:23.688Z,12.14
2023-05-05T02:31:56.017Z,12.18
2023-05-05T02:33:28.471Z,12.25
2023-05-05T02:35:04.671Z,12.26
2023-05-05T02:36:37.976Z,12.12
2023-05-05T02:38:13.695Z,12.03
2023-05-05T02:39:49.807Z,11.93
2023-05-05T02:41:21.734Z,12.10
2023-05-05T02:42:57.143Z,12.04
2023-05-05T02:44:29.253Z,12.02
2023-05-05T02:46:01.110Z,11.94
2023-05-05T02:47:36.230Z,11.83
2023-05-05T02:49:08.092Z,11.83
2023-05-05T02:50:41.385Z,11.72
2023-05-05T02:52:13.194Z,11.82
2023-05-05T02:53:45.212Z,11.75
2023-05-05T02:55:17.101Z,11.87
2023-05-05T02:56:49.747Z,11.87
2023-05-05T02:58:23.697Z,11.81
2023-05-05T02:59:59.815Z,11.89
2023-05-05T03:01:43.820Z,11.89
2023-05-05T03:03:18.517Z,11.77
2023-05-05T03:04:53.574Z,11.63
2023-05-05T03:06:27.540Z,11.79
2023-05-05T03:08:02.070Z,11.77
2023-05-05T03:09:37.488Z,11.81
2023-05-05T03:11:15.964Z,11.57
2023-05-05T03:12:49.910Z,11.70
2023-05-05T03:14:21.760Z,11.78
2023-05-05T03:15:53.777Z,11.70
2023-05-05T03:17:25.981Z,11.64
2023-05-05T03:18:58.797Z,11.70
2023-05-05T03:20:30.818Z,11.70
2023-05-05T03:22:06.519Z,11.70
2023-05-05T03:23:40.971Z,11.69
2023-05-05T03:25:18.645Z,11.66
2023-05-05T03:26:50.835Z,11.67
2023-05-05T03:28:24.884Z,11.69
2023-05-05T03:29:56.841Z,11.60
2023-05-05T03:31:28.880Z,11.60
2023-05-05T03:33:04.202Z,11.66
2023-05-05T03:34:37.859Z,11.64
2023-05-05T03:36:10.790Z,11.64
2023-05-05T03:37:44.121Z,11.62
2023-05-05T03:39:18.183Z,11.69
2023-05-05T03:40:50.177Z,11.60
2023-05-05T03:42:22.030Z,11.62
2023-05-05T03:43:53.867Z,11.63
2023-05-05T03:45:28.178Z,11.70
2023-05-05T03:47:02.886Z,11.73
2023-05-05T03:48:36.626Z,11.68
2023-05-05T03:50:09.445Z,11.60
2023-05-05T03:51:41.571Z,11.66
2023-05-05T03:53:14.830Z,11.53
2023-05-05T03:54:46.691Z,11.54
2023-05-05T03:56:18.549Z,11.63
2023-05-05T03:57:50.532Z,11.62
2023-05-05T03:59:22.345Z,11.47
2023-05-05T04:00:54.272Z,11.52
2023-05-05T04:02:32.631Z,11.48
2023-05-05T04:04:04.992Z,11.45
2023-05-05T04:06:23.087Z,11.48
2023-05-05T04:08:18.688Z,11.44
2023-05-05T04:09:51.765Z,11.48
2023-05-05T04:11:23.420Z,11.62
2023-05-05T04:12:55.080Z,11.69
2023-05-05T04:14:26.819Z,11.53
2023-05-05T04:15:59.795Z,11.57
2023-05-05T04:17:31.468Z,11.60
2023-05-05T04:19:03.938Z,11.66
2023-05-05T04:20:36.050Z,11.70
2023-05-05T04:22:07.668Z,11.75
2023-05-05T04:23:39.276Z,11.67
2023-05-05T04:25:12.289Z,11.68
2023-05-05T04:26:43.906Z,11.66
2023-05-05T04:28:15.912Z,11.61
2023-05-05T04:29:47.573Z,11.61
2023-05-05T04:31:19.250Z,11.61
2023-05-05T04:32:51.023Z,11.63
2023-05-05T04:34:22.734Z,11.69
2023-05-05T04:35:54.366Z,11.68
2023-05-05T04:37:25.957Z,11.44
2023-05-05T04:38:57.700Z,11.23
2023-05-05T04:40:31.257Z,11.04
2023-05-05T04:42:03.106Z,11.26
2023-05-05T04:43:34.717Z,11.42
2023-05-05T04:45:07.495Z,11.44
2023-05-05T04:46:39.163Z,11.52
2023-05-05T04:48:10.803Z,11.63
2023-05-05T04:49:42.517Z,11.66
2023-05-05T04:51:14.253Z,11.70
2023-05-05T04:52:45.940Z,11.72
2023-05-05T04:54:17.574Z,11.67
2023-05-05T04:55:50.633Z,11.69
2023-05-05T04:57:22.383Z,11.74
2023-05-05T04:58:54.004Z,11.74
2023-05-05T05:00:25.637Z,11.73
2023-05-05T05:01:57.335Z,11.70
2023-05-05T05:03:29.102Z,11.68
2023-05-05T05:05:00.835Z,11.57
2023-05-05T05:06:32.425Z,11.75
2023-05-05T05:08:04.537Z,11.90
2023-05-05T05:09:36.152Z,11.95
2023-05-05T05:11:09.120Z,11.97
2023-05-05T05:12:40.837Z,12.02
2023-05-05T05:14:12.418Z,12.06
2023-05-05T05:15:44.321Z,12.15
2023-05-05T05:17:16.110Z,12.15
2023-05-05T05:18:47.820Z,12.11
2023-05-05T05:20:19.826Z,12.18
2023-05-05T05:21:51.879Z,12.27
2023-05-05T05:23:23.520Z,12.34
2023-05-05T05:24:55.247Z,12.34
2023-05-05T05:26:28.327Z,12.37
2023-05-05T05:28:09.689Z,12.44
2023-05-05T05:29:43.522Z,12.51
2023-05-05T05:31:15.135Z,12.52
2023-05-05T05:32:46.817Z,12.53
2023-05-05T05:34:18.476Z,12.60
2023-05-05T05:35:50.102Z,12.64
2023-05-05T05:37:21.672Z,12.66
2023-05-05T05:38:53.467Z,12.67
2023-05-05T05:40:25.137Z,12.73
2023-05-05T05:41:58.099Z,12.80
2023-05-05T05:43:29.715Z,12.85
2023-05-05T05:45:01.645Z,12.86
2023-05-05T05:46:33.351Z,12.84
2023-05-05T05:48:05.672Z,12.88
2023-05-05T05:49:37.343Z,12.93
2023-05-05T05:51:08.973Z,12.96
2023-05-05T05:52:40.597Z,13.01
2023-05-05T05:54:12.586Z,13.06
2023-05-05T05:55:45.857Z,13.03
2023-05-05T05:57:19.065Z,13.04
2023-05-05T05:58:50.827Z,13.17
2023-05-05T06:00:25.310Z,13.21
2023-05-05T06:01:56.969Z,13.25
2023-05-05T06:03:28.895Z,13.30
2023-05-05T06:05:00.690Z,13.35
2023-05-05T06:06:32.336Z,13.40
2023-05-05T06:08:04.359Z,13.38
2023-05-05T06:09:36.081Z,13.43
2023-05-05T06:11:07.897Z,13.45
2023-05-05T06:12:40.897Z,13.46
2023-05-05T06:14:12.591Z,13.43
2023-05-05T06:15:44.314Z,13.38
2023-05-05T06:17:16.031Z,13.39
2023-05-05T06:18:47.730Z,13.38
2023-05-05T06:20:19.406Z,13.45
2023-05-05T06:21:51.176Z,13.47
2023-05-05T06:23:22.766Z,13.46
2023-05-05T06:24:54.345Z,13.49
2023-05-05T06:26:26.030Z,13.46
2023-05-05T06:28:00.060Z,13.44
2023-05-05T06:29:31.714Z,13.46
2023-05-05T06:31:03.440Z,13.47
2023-05-05T06:32:35.134Z,13.54
2023-05-05T06:34:06.768Z,13.58
2023-05-05T06:35:38.387Z,13.50
2023-05-05T06:37:09.965Z,13.47
2023-05-05T06:38:41.549Z,13.48
2023-05-05T06:40:13.417Z,13.48
2023-05-05T06:41:45.003Z,13.50
2023-05-05T06:43:18.079Z,13.50
2023-05-05T06:44:49.853Z,13.48
2023-05-05T06:46:21.870Z,13.51
2023-05-05T06:47:53.613Z,13.52
2023-05-05T06:49:25.459Z,13.54
2023-05-05T06:50:57.363Z,13.58
2023-05-05T06:52:28.992Z,13.57
2023-05-05T06:54:00.645Z,13.59
2023-05-05T06:55:32.309Z,13.67
2023-05-05T06:57:04.139Z,13.71
2023-05-05T06:58:38.236Z,13.71
2023-05-05T07:00:11.599Z,13.75
2023-05-05T07:01:43.299Z,13.75
2023-05-05T07:03:15.493Z,13.76
2023-05-05T07:04:47.488Z,13.80
2023-05-05T07:06:19.492Z,13.85
2023-05-05T07:07:52.654Z,13.87
2023-05-05T07:09:24.390Z,13.86
2023-05-05T07:10:56.181Z,13.82
2023-05-05T07:12:29.159Z,13.87
2023-05-05T07:14:02.323Z,13.89
2023-05-05T07:15:33.972Z,13.92
2023-05-05T07:17:05.752Z,13.98
2023-05-05T07:18:37.427Z,13.89
2023-05-05T07:20:09.765Z,13.94
2023-05-05T07:21:42.236Z,14.00
2023-05-05T07:23:14.116Z,14.09
2023-05-05T07:24:45.998Z,14.18
2023-05-05T07:26:17.649Z,14.21
2023-05-05T07:27:49.410Z,14.24
2023-05-05T07:29:22.520Z,14.32
2023-05-05T07:30:54.686Z,14.26
2023-05-05T07:32:26.412Z,14.28
2023-05-05T07:33:58.674Z,14.30
2023-05-05T07:35:30.484Z,14.32
2023-05-05T07:37:02.394Z,14.35
2023-05-05T07:38:35.045Z,14.41
2023-05-05T07:40:08.155Z,14.46
2023-05-05T07:41:43.924Z,14.47
2023-05-05T07:43:15.815Z,14.43
2023-05-05T07:44:48.831Z,14.45
2023-05-05T07:46:20.590Z,14.51
2023-05-05T07:47:52.273Z,14.52
2023-05-05T07:49:23.961Z,14.49
2023-05-05T07:50:56.166Z,14.59
2023-05-05T07:52:44.295Z,14.67
2023-05-05T07:54:19.597Z,14.65
2023-05-05T07:55:51.321Z,14.74
2023-05-05T07:57:23.098Z,14.80
2023-05-05T07:58:55.366Z,14.83
2023-05-05T08:00:28.364Z,14.87
2023-05-05T08:02:00.037Z,14.99
2023-05-05T08:03:31.869Z,15.08
2023-05-05T08:05:04.633Z,15.17
2023-05-05T08:06:36.361Z,15.13
2023-05-05T08:08:08.061Z,15.21
2023-05-05T08:09:39.833Z,15.29
2023-05-05T08:11:11.442Z,15.35
2023-05-05T08:12:43.295Z,15.42
2023-05-05T08:14:15.595Z,15.47
2023-05-05T08:15:48.634Z,15.38
2023-05-05T08:17:20.420Z,15.54
2023-05-05T08:18:52.333Z,15.65
2023-05-05T08:20:28.041Z,15.80
2023-05-05T08:22:01.795Z,16.12
2023-05-05T08:23:33.602Z,16.16
2023-05-05T08:25:06.914Z,16.28
2023-05-05T08:26:39.186Z,16.61
2023-05-05T08:28:11.090Z,17.11
2023-05-05T08:29:42.964Z,16.98
2023-05-05T08:31:16.007Z,16.85
2023-05-05T08:32:47.706Z,17.09
2023-05-05T08:34:19.938Z,17.27
2023-05-05T08:35:51.649Z,17.15
2023-05-05T08:37:23.311Z,17.05
2023-05-05T08:38:55.048Z,17.11
2023-05-05T08:40:30.116Z,17.11
2023-05-05T08:42:02.390Z,17.19
2023-05-05T08:43:34.889Z,17.33
2023-05-05T08:45:08.390Z,17.41
2023-05-05T08:46:41.902Z,17.37
2023-05-05T08:48:13.658Z,17.43
2023-05-05T08:49:46.428Z,17.55
2023-05-05T08:51:21.488Z,17.36
2023-05-05T08:52:54.535Z,17.38
2023-05-05T08:54:26.418Z,17.19
2023-05-05T08:55:58.070Z,17.00
2023-05-05T08:57:48.052Z,17.34
2023-05-05T08:59:19.764Z,17.15
2023-05-05T09:00:51.781Z,17.51
2023-05-05T09:02:28.405Z,17.58
2023-05-05T09:04:00.241Z,17.85
2023-05-05T09:05:31.899Z,18.18
2023-05-05T09:07:03.505Z,17.92
2023-05-05T09:08:35.130Z,17.95
2023-05-05T09:10:08.309Z,18.14
2023-05-05T09:11:39.964Z,18.21
2023-05-05T09:13:11.716Z,17.82
2023-05-05T09:14:43.563Z,18.14
2023-05-05T09:16:15.307Z,18.19
2023-05-05T09:17:51.177Z,18.46
2023-05-05T09:19:22.886Z,18.61
2023-05-05T09:20:55.149Z,18.92
2023-05-05T09:22:36.608Z,19.07
2023-05-05T09:24:09.388Z,19.39
2023-05-05T09:25:42.792Z,19.44
2023-05-05T09:27:21.461Z,19.43
2023-05-05T09:28:53.522Z,19.73
2023-05-05T09:30:25.977Z,19.74
2023-05-05T09:32:08.518Z,19.74
2023-05-05T09:33:41.958Z,19.68
2023-05-05T09:35:13.655Z,19.95
2023-05-05T09:36:47.894Z,19.97
2023-05-05T09:38:19.782Z,19.95
2023-05-05T09:39:53.725Z,20.16
2023-05-05T09:41:36.708Z,20.39
2023-05-05T09:43:08.566Z,20.15
2023-05-05T09:44:40.745Z,20.22
2023-05-05T09:46:13.008Z,20.33
2023-05-05T09:47:45.739Z,20.31
2023-05-05T09:49:19.547Z,20.36
2023-05-05T09:50:51.203Z,20.18
2023-05-05T09:52:22.971Z,20.04
2023-05-05T09:53:54.622Z,19.81
2023-05-05T09:55:26.299Z,19.62
2023-05-05T09:56:57.950Z,19.24
2023-05-05T09:58:30.664Z,19.34
2023-05-05T10:00:04.134Z,19.26
2023-05-05T10:01:35.924Z,18.98
2023-05-05T10:03:07.662Z,19.11
2023-05-05T10:04:40.824Z,19.57
2023-05-05T10:06:12.516Z,19.35
2023-05-05T10:07:46.103Z,19.34
2023-05-05T10:09:17.743Z,19.09
2023-05-05T10:10:53.209Z,19.54
2023-05-05T10:12:25.322Z,19.71
2023-05-05T10:13:57.076Z,19.32
2023-05-05T10:15:28.676Z,19.31
2023-05-05T10:17:00.296Z,19.39
2023-05-05T10:18:32.201Z,19.49
2023-05-05T10:20:06.963Z,19.50
2023-05-05T10:21:40.903Z,19.70
2023-05-05T10:23:15.559Z,19.49
2023-05-05T10:24:48.418Z,19.44
2023-05-05T10:26:20.075Z,19.48
2023-05-05T10:27:53.950Z,20.01
2023-05-05T10:29:31.403Z,20.08
2023-05-05T10:31:12.892Z,19.83
2023-05-05T10:33:04.375Z,20.06
2023-05-05T10:34:50.891Z,20.17
2023-05-05T10:36:24.529Z,20.25
2023-05-05T10:37:57.726Z,19.41
2023-05-05T10:39:29.349Z,19.21
2023-05-05T10:41:01.996Z,19.93
2023-05-05T10:42:33.734Z,19.83
2023-05-05T10:44:05.894Z,20.26
2023-05-05T10:45:37.658Z,19.61
2023-05-05T10:47:09.354Z,19.62
2023-05-05T10:48:47.156Z,20.24
2023-05-05T10:50:27.220Z,20.30
2023-05-05T10:52:05.124Z,20.30
2023-05-05T10:53:41.324Z,20.09
2023-05-05T10:55:15.030Z,19.82
2023-05-05T10:56:46.846Z,19.73
2023-05-05T10:58:43.748Z,20.02
2023-05-05T11:00:57.637Z,20.79
2023-05-05T11:02:29.661Z,20.47
2023-05-05T11:04:18.179Z,19.88
2023-05-05T11:06:12.567Z,20.27
2023-05-05T11:07:46.159Z,20.60
2023-05-05T11:09:27.839Z,21.02
2023-05-05T11:10:59.600Z,20.47
2023-05-05T11:12:32.473Z,20.43
2023-05-05T11:14:19.480Z,19.86
2023-05-05T11:15:51.675Z,19.96
2023-05-05T11:17:44.380Z,20.29
2023-05-05T11:19:45.861Z,20.64
2023-05-05T11:21:17.954Z,20.13
2023-05-05T11:23:25.757Z,20.59
2023-05-05T11:24:57.480Z,20.78
2023-05-05T11:26:51.518Z,20.90
2023-05-05T11:28:25.612Z,20.90
2023-05-05T11:30:10.447Z,20.76
2023-05-05T11:31:42.503Z,20.35
2023-05-05T11:33:23.421Z,20.57
2023-05-05T11:34:55.071Z,20.53
2023-05-05T11:36:39.153Z,20.47
2023-05-05T11:38:10.777Z,20.90
2023-05-05T11:39:49.914Z,20.71
2023-05-05T11:41:27.371Z,20.48
2023-05-05T11:43:05.501Z,20.31
2023-05-05T11:44:37.404Z,20.04
2023-05-05T11:46:12.633Z,20.15
2023-05-05T11:47:44.351Z,20.44
2023-05-05T11:49:24.111Z,20.28
2023-05-05T11:50:55.746Z,20.27
2023-05-05T11:52:27.518Z,20.74
2023-05-05T11:53:59.396Z,20.96
2023-05-05T11:55:32.406Z,21.37
2023-05-05T11:57:10.217Z,21.25
2023-05-05T11:58:42.009Z,20.96
2023-05-05T12:00:17.190Z,20.90
2023-05-05T12:01:48.784Z,21.09
2023-05-05T12:03:20.501Z,21.00
2023-05-05T12:04:52.575Z,20.73
2023-05-05T12:06:24.727Z,20.76
2023-05-05T12:07:57.735Z,20.85
2023-05-05T12:09:29.408Z,20.99
2023-05-05T12:11:06.186Z,21.10
2023-05-05T12:12:39.432Z,20.68
2023-05-05T12:14:11.481Z,20.92
2023-05-05T12:15:43.167Z,21.01
2023-05-05T12:17:15.007Z,21.11
2023-05-05T12:18:46.621Z,20.83
2023-05-05T12:20:18.321Z,20.33
2023-05-05T12:21:50.013Z,20.40
2023-05-05T12:23:21.736Z,20.92
2023-05-05T12:24:55.106Z,21.25
2023-05-05T12:26:29.150Z,21.52
2023-05-05T12:28:00.929Z,21.27
2023-05-05T12:29:32.536Z,21.38
2023-05-05T12:31:04.326Z,21.71
2023-05-05T12:32:36.051Z,21.77
2023-05-05T12:34:08.717Z,21.31
2023-05-05T12:35:41.571Z,21.79
2023-05-05T12:37:13.200Z,22.30
2023-05-05T12:38:44.832Z,22.39
2023-05-05T12:40:45.073Z,22.70
2023-05-05T12:42:19.073Z,22.34
2023-05-05T12:43:54.626Z,22.53
2023-05-05T12:45:26.435Z,22.04
2023-05-05T12:46:59.183Z,22.47
2023-05-05T12:48:31.022Z,22.45
2023-05-05T12:50:03.410Z,21.74
2023-05-05T12:51:35.988Z,22.04
2023-05-05T12:53:07.689Z,21.72
2023-05-05T12:54:53.585Z,21.86
2023-05-05T12:56:33.761Z,21.97
2023-05-05T12:58:07.084Z,21.82
2023-05-05T12:59:38.716Z,22.00
2023-05-05T13:01:10.559Z,21.71
2023-05-05T13:02:42.489Z,21.34
2023-05-05T13:04:14.430Z,21.54
2023-05-05T13:05:46.237Z,21.66
2023-05-05T13:07:19.580Z,21.77
2023-05-05T13:08:52.036Z,21.56
2023-05-05T13:10:25.054Z,21.43
2023-05-05T13:11:56.819Z,22.07
2023-05-05T13:13:32.065Z,22.44
2023-05-05T13:15:04.347Z,22.06
2023-05-05T13:16:36.149Z,21.37
2023-05-05T13:18:07.801Z,21.33
2023-05-05T13:19:45.948Z,21.16
2023-05-05T13:21:17.661Z,20.97
2023-05-05T13:22:49.416Z,20.93
2023-05-05T13:24:28.541Z,21.03
2023-05-05T13:26:06.403Z,21.57
2023-05-05T13:27:38.012Z,21.25
2023-05-05T13:29:11.249Z,21.51
2023-05-05T13:30:42.934Z,21.57
2023-05-05T13:32:14.557Z,22.00
2023-05-05T13:33:46.351Z,22.11
2023-05-05T13:35:18.055Z,21.61
2023-05-05T13:36:49.907Z,21.85
2023-05-05T13:38:21.588Z,22.32
2023-05-05T13:39:55.419Z,22.54
2023-05-05T13:41:26.983Z,22.88
2023-05-05T13:42:58.700Z,22.97
2023-05-05T13:44:32.007Z,23.05
2023-05-05T13:46:18.698Z,22.32
2023-05-05T13:47:51.028Z,22.63
2023-05-05T13:49:22.742Z,23.03
2023-05-05T13:50:54.364Z,22.37
2023-05-05T13:52:26.126Z,22.61
2023-05-05T13:53:57.849Z,22.42
2023-05-05T13:55:29.857Z,22.34
2023-05-05T13:57:02.978Z,22.33
2023-05-05T13:58:37.171Z,22.16
2023-05-05T14:00:11.918Z,21.81
2023-05-05T14:01:43.683Z,22.02
2023-05-05T14:03:15.347Z,22.14
2023-05-05T14:04:47.207Z,22.43
2023-05-05T14:06:18.804Z,22.71
2023-05-05T14:07:50.414Z,22.63
2023-05-05T14:09:22.396Z,22.34
2023-05-05T14:10:54.016Z,22.08
2023-05-05T14:12:25.684Z,22.09
2023-05-05T14:13:57.664Z,22.02
2023-05-05T14:15:30.669Z,22.08
2023-05-05T14:17:02.481Z,22.00
2023-05-05T14:18:34.247Z,21.52
2023-05-05T14:20:07.153Z,21.58
2023-05-05T14:21:38.771Z,21.57
2023-05-05T14:23:10.387Z,21.34
2023-05-05T14:24:42.152Z,21.49
2023-05-05T14:26:13.982Z,21.33
2023-05-05T14:27:45.936Z,21.51
2023-05-05T14:29:17.692Z,21.62
2023-05-05T14:30:50.757Z,21.98
2023-05-05T14:32:23.119Z,22.23
2023-05-05T14:33:54.836Z,22.03
2023-05-05T14:35:26.560Z,21.75
2023-05-05T14:36:58.253Z,21.94
2023-05-05T14:38:29.862Z,21.97
2023-05-05T14:40:03.028Z,21.90
2023-05-05T14:41:36.006Z,21.71
2023-05-05T14:43:07.625Z,21.67
2023-05-05T14:44:39.238Z,21.62
2023-05-05T14:46:12.307Z,21.62
2023-05-05T14:47:44.023Z,21.61
2023-05-05T14:49:15.749Z,21.59
2023-05-05T14:50:47.405Z,21.64
2023-05-05T14:52:19.013Z,21.72
2023-05-05T14:53:50.681Z,21.73
2023-05-05T14:55:22.329Z,21.75
2023-05-05T14:56:53.956Z,21.62
2023-05-05T14:58:25.683Z,21.64
2023-05-05T14:59:57.330Z,21.59
2023-05-05T15:01:30.406Z,21.46
2023-05-05T15:03:02.092Z,21.48
2023-05-05T15:04:33.809Z,21.29
2023-05-05T15:06:05.577Z,21.18
2023-05-05T15:07:37.657Z,21.25
2023-05-05T15:09:09.575Z,21.16
2023-05-05T15:10:41.273Z,21.06
2023-05-05T15:12:12.952Z,21.00
2023-05-05T15:13:44.575Z,21.07
2023-05-05T15:15:16.375Z,21.07
2023-05-05T15:16:49.518Z,21.09
2023-05-05T15:18:21.284Z,21.11
2023-05-05T15:19:53.035Z,21.04
2023-05-05T15:21:24.852Z,20.97
2023-05-05T15:22:56.664Z,20.93
2023-05-05T15:24:28.324Z,20.90
2023-05-05T15:26:00.009Z,20.97
2023-05-05T15:27:31.827Z,21.01
2023-05-05T15:29:03.890Z,20.93
2023-05-05T15:30:35.821Z,20.86
2023-05-05T15:32:08.837Z,20.84
2023-05-05T15:33:40.569Z,20.78
2023-05-05T15:35:12.362Z,20.63
2023-05-05T15:36:44.012Z,20.60
2023-05-05T15:38:16.088Z,20.57
2023-05-05T15:39:47.688Z,20.59
2023-05-05T15:42:06.157Z,20.61
2023-05-05T15:43:12.053Z,20.62
2023-05-05T15:44:44.834Z,20.55
2023-05-05T15:46:16.548Z,20.53
2023-05-05T15:47:50.525Z,20.50
2023-05-05T15:49:22.192Z,20.52
2023-05-05T15:50:54.332Z,20.49
2023-05-05T15:52:26.030Z,20.45
2023-05-05T15:53:57.726Z,20.37
2023-05-05T15:55:29.749Z,20.31
2023-05-05T15:57:03.088Z,20.28
2023-05-05T15:58:34.684Z,20.31
2023-05-05T16:00:07.889Z,20.26
2023-05-05T16:01:39.790Z,20.19
2023-05-05T16:03:12.997Z,20.11
2023-05-05T16:04:47.951Z,20.10
2023-05-05T16:06:19.961Z,20.15
2023-05-05T16:07:55.743Z,20.07
2023-05-05T16:09:27.526Z,20.09
2023-05-05T16:10:59.192Z,19.95
2023-05-05T16:12:30.893Z,19.66
2023-05-05T16:14:02.655Z,19.60
2023-05-05T16:15:34.586Z,19.60
2023-05-05T16:17:07.556Z,19.52
2023-05-05T16:18:40.793Z,19.39
2023-05-05T16:20:13.053Z,18.72
2023-05-05T16:21:44.944Z,17.97
2023-05-05T16:23:16.818Z,16.90
2023-05-05T16:24:48.538Z,16.57
2023-05-05T16:26:22.000Z,16.15
2023-05-05T16:28:03.085Z,16.11
2023-05-05T16:29:34.688Z,16.06
2023-05-05T16:31:06.318Z,15.88
2023-05-05T16:32:38.101Z,15.73
2023-05-05T16:34:11.191Z,15.57
2023-05-05T16:35:43.687Z,15.50
2023-05-05T16:37:15.540Z,15.62
2023-05-05T16:38:47.207Z,15.55
2023-05-05T16:40:19.156Z,15.77
2023-05-05T16:41:50.824Z,15.50
2023-05-05T16:43:22.667Z,15.59
2023-05-05T16:44:54.673Z,15.52
2023-05-05T16:46:34.372Z,15.57
2023-05-05T16:48:08.891Z,15.66
2023-05-05T16:49:42.277Z,15.75
2023-05-05T16:51:14.090Z,15.53
2023-05-05T16:52:45.961Z,15.39
2023-05-05T16:54:17.617Z,15.44
2023-05-05T16:55:50.040Z,15.49
2023-05-05T16:57:22.185Z,15.51
2023-05-05T16:58:53.834Z,15.46
2023-05-05T17:00:25.770Z,15.61
2023-05-05T17:01:57.799Z,15.17
2023-05-05T17:03:29.445Z,15.06
2023-05-05T17:05:02.517Z,15.15
2023-05-05T17:06:34.203Z,14.92
2023-05-05T17:08:05.837Z,15.05
2023-05-05T17:09:37.478Z,14.92
2023-05-05T17:11:11.488Z,15.11
2023-05-05T17:12:43.574Z,15.04
2023-05-05T17:14:15.298Z,15.38
2023-05-05T17:15:46.971Z,15.13
2023-05-05T17:17:18.617Z,15.00
2023-05-05T17:18:50.278Z,15.38
2023-05-05T17:20:23.492Z,15.44
2023-05-05T17:21:55.232Z,15.52
2023-05-05T17:23:27.151Z,15.44
2023-05-05T17:24:59.020Z,15.18
2023-05-05T17:26:30.810Z,15.28
2023-05-05T17:28:02.795Z,15.48
2023-05-05T17:29:39.362Z,15.38
2023-05-05T17:31:11.030Z,15.61
2023-05-05T17:32:42.736Z,15.63
2023-05-05T17:34:14.371Z,15.55
2023-05-05T17:35:47.367Z,15.46
2023-05-05T17:37:19.047Z,15.21
2023-05-05T17:38:50.721Z,15.22
2023-05-05T17:40:22.618Z,15.51
2023-05-05T17:41:54.323Z,15.61
2023-05-05T17:43:25.924Z,15.67
2023-05-05T17:44:57.556Z,15.63
2023-05-05T17:46:29.221Z,15.72
2023-05-05T17:48:00.873Z,15.80
2023-05-05T17:49:32.624Z,15.57
2023-05-05T17:51:05.735Z,15.54
2023-05-05T17:52:37.383Z,15.46
2023-05-05T17:54:09.098Z,15.70
2023-05-05T17:55:44.578Z,15.88
2023-05-05T17:57:20.929Z,15.76
2023-05-05T17:58:53.126Z,15.60
2023-05-05T18:00:25.034Z,15.45
2023-05-05T18:01:56.647Z,15.69
2023-05-05T18:03:28.485Z,15.57
2023-05-05T18:05:04.084Z,15.48
2023-05-05T18:06:38.701Z,15.63
2023-05-05T18:08:10.634Z,15.57
2023-05-05T18:09:45.334Z,15.49
2023-05-05T18:11:39.367Z,15.48
2023-05-05T18:13:16.831Z,15.55
2023-05-05T18:14:49.587Z,15.75
2023-05-05T18:16:22.506Z,15.48
2023-05-05T18:17:56.213Z,15.31
2023-05-05T18:19:31.167Z,15.51
2023-05-05T18:21:06.531Z,15.33
2023-05-05T18:22:39.550Z,15.20
2023-05-05T18:24:20.083Z,15.15
2023-05-05T18:25:54.490Z,15.18
2023-05-05T18:27:27.317Z,15.18
2023-05-05T18:28:59.155Z,15.23
2023-05-05T18:30:32.102Z,15.19
2023-05-05T18:32:05.821Z,15.23
2023-05-05T18:33:38.056Z,15.20
2023-05-05T18:35:10.178Z,15.35
2023-05-05T18:36:43.011Z,15.47
2023-05-05T18:38:19.497Z,15.35
2023-05-05T18:39:52.294Z,15.38
2023-05-05T18:41:25.390Z,15.36
2023-05-05T18:42:57.845Z,15.37
2023-05-05T18:44:30.542Z,15.34
2023-05-05T18:46:02.628Z,15.21
2023-05-05T18:47:35.167Z,15.11
2023-05-05T18:49:07.344Z,15.06
2023-05-05T18:50:38.954Z,15.24
2023-05-05T18:52:10.653Z,15.34
2023-05-05T18:53:43.790Z,15.36
2023-05-05T18:55:15.421Z,15.28
2023-05-05T18:56:46.999Z,15.19
2023-05-05T18:58:18.773Z,15.11
2023-05-05T18:59:50.473Z,15.32
2023-05-05T19:01:23.371Z,15.35
2023-05-05T19:02:55.119Z,15.29
2023-05-05T19:04:31.730Z,15.52
2023-05-05T19:06:06.236Z,15.45
2023-05-05T19:07:40.276Z,15.42
2023-05-05T19:09:14.249Z,15.50
2023-05-05T19:10:51.749Z,15.35
2023-05-05T19:12:23.382Z,15.36
2023-05-05T19:14:12.010Z,15.34
2023-05-05T19:15:44.741Z,15.35
2023-05-05T19:17:16.614Z,15.30
2023-05-05T19:18:48.385Z,15.43
2023-05-05T19:20:20.185Z,15.40
2023-05-05T19:21:54.806Z,15.33
2023-05-05T19:23:26.441Z,15.34
2023-05-05T19:25:01.824Z,15.26
2023-05-05T19:26:33.432Z,15.33
2023-05-05T19:28:05.133Z,15.28
2023-05-05T19:29:36.884Z,15.33
2023-05-05T19:31:08.670Z,15.30
2023-05-05T19:32:40.416Z,15.26
2023-05-05T19:34:12.108Z,15.35
2023-05-05T19:35:43.871Z,15.31
2023-05-05T19:37:15.533Z,15.21
2023-05-05T19:38:50.372Z,15.21
2023-05-05T19:40:23.643Z,15.26
2023-05-05T19:41:56.845Z,15.26
2023-05-05T19:43:28.510Z,15.19
2023-05-05T19:45:01.077Z,15.24
2023-05-05T19:46:32.938Z,15.27
2023-05-05T19:48:05.570Z,15.30
2023-05-05T19:49:37.206Z,15.22
2023-05-05T19:51:08.846Z,15.26
2023-05-05T19:52:41.812Z,15.26
2023-05-05T19:54:15.990Z,15.31
2023-05-05T19:55:52.196Z,15.23
2023-05-05T19:57:29.474Z,15.26
2023-05-05T19:59:01.961Z,15.27
2023-05-05T20:00:33.601Z,15.21
2023-05-05T20:02:05.329Z,15.15
2023-05-05T20:03:37.042Z,15.17
2023-05-05T20:05:11.458Z,15.11